createdAt,value
2023-05-08T00:01:56.225Z,3.50
2023-05-08T00:03:57.998Z,3.38
2023-05-08T00:05:59.995Z,2.78
2023-05-08T00:08:03.435Z,3.58
2023-05-08T00:10:06.983Z,3.55
2023-05-08T00:12:08.465Z,2.88
2023-05-08T00:14:09.926Z,2.70
2023-05-08T00:16:12.857Z,3.13
2023-05-08T00:18:14.485Z,2.80
2023-05-08T00:20:17.110Z,2.58
2023-05-08T00:22:20.666Z,3.50
2023-05-08T00:24:22.988Z,2.78
2023-05-08T00:26:24.482Z,2.90
2023-05-08T00:28:26.078Z,2.70
2023-05-08T00:30:27.867Z,2.30
2023-05-08T00:32:29.623Z,2.78
2023-05-08T00:34:33.785Z,2.92
2023-05-08T00:36:36.221Z,2.83
2023-05-08T00:38:38.409Z,3.25
2023-05-08T00:40:41.390Z,3.78
2023-05-08T00:42:42.912Z,3.30
2023-05-08T00:44:48.079Z,5.18
2023-05-08T00:46:49.635Z,3.72
2023-05-08T00:48:51.226Z,4.13
2023-05-08T00:50:53.514Z,6.00
2023-05-08T00:52:55.817Z,5.40
2023-05-08T00:54:57.905Z,5.30
2023-05-08T00:57:01.551Z,4.47
2023-05-08T00:59:05.116Z,5.65
2023-05-08T01:01:07.186Z,5.70
2023-05-08T01:03:09.666Z,6.70
2023-05-08T01:05:12.284Z,6.22
2023-05-08T01:07:13.824Z,7.28
2023-05-08T01:09:16.821Z,6.97
2023-05-08T01:11:30.259Z,6.03
2023-05-08T01:13:51.202Z,5.50
2023-05-08T01:16:22.878Z,6.13
2023-05-08T01:18:38.414Z,7.18
2023-05-08T01:20:57.221Z,6.45
2023-05-08T01:23:32.757Z,6.38
2023-05-08T01:26:15.654Z,6.22
2023-05-08T01:28:48.262Z,9.15
2023-05-08T01:31:12.503Z,8.13
2023-05-08T01:33:19.836Z,8.60
2023-05-08T01:35:22.424Z,8.43
2023-05-08T01:37:50.516Z,8.77
2023-05-08T01:40:11.407Z,7.50
2023-05-08T01:42:20.038Z,9.38
2023-05-08T01:44:24.362Z,9.55
2023-05-08T01:46:28.132Z,8.68
2023-05-08T01:48:39.560Z,8.07
2023-05-08T01:50:46.152Z,8.55
2023-05-08T01:52:51.981Z,8.65
2023-05-08T01:54:57.864Z,7.72
2023-05-08T01:57:00.190Z,7.68
2023-05-08T01:59:02.855Z,6.53
2023-05-08T02:01:05.176Z,7.00
2023-05-08T02:03:08.464Z,8.15
2023-05-08T02:05:11.535Z,7.07
2023-05-08T02:07:13.176Z,7.50
2023-05-08T02:09:17.980Z,7.05
2023-05-08T02:11:20.394Z,7.43
2023-05-08T02:13:23.384Z,7.35
2023-05-08T02:15:26.196Z,6.68
2023-05-08T02:17:29.965Z,6.28
2023-05-08T02:19:31.851Z,5.70
2023-05-08T02:21:34.374Z,6.55
2023-05-08T02:23:36.127Z,6.65
2023-05-08T02:25:38.316Z,6.60
2023-05-08T02:27:41.009Z,8.05
2023-05-08T02:29:43.076Z,7.28
2023-05-08T02:31:45.627Z,6.55
2023-05-08T02:33:48.028Z,7.57
2023-05-08T02:35:50.869Z,7.97
2023-05-08T02:37:56.386Z,8.45
2023-05-08T02:40:03.158Z,7.80
2023-05-08T02:42:04.800Z,8.20
2023-05-08T02:44:07.941Z,7.75
2023-05-08T02:46:18.829Z,7.88
2023-05-08T02:48:30.689Z,8.65
2023-05-08T02:50:53.709Z,8.05
2023-05-08T02:53:03.291Z,8.13
2023-05-08T02:55:15.179Z,9.05
2023-05-08T02:57:24.577Z,8.65
2023-05-08T02:59:31.738Z,8.80
2023-05-08T03:01:52.805Z,8.02
2023-05-08T03:04:06.808Z,8.82
2023-05-08T03:06:21.722Z,9.57
2023-05-08T03:08:36.313Z,9.60
2023-05-08T03:10:40.361Z,8.57
2023-05-08T03:12:46.423Z,9.98
2023-05-08T03:15:08.153Z,9.30
2023-05-08T03:17:15.200Z,8.20
2023-05-08T03:19:30.434Z,8.02
2023-05-08T03:21:33.889Z,7.53
2023-05-08T03:23:37.086Z,8.13
2023-05-08T03:25:40.206Z,8.57
2023-05-08T03:27:42.283Z,8.07
2023-05-08T03:29:44.689Z,10.80
2023-05-08T03:31:48.662Z,10.48
2023-05-08T03:33:58.099Z,9.43
2023-05-08T03:36:01.699Z,11.82
2023-05-08T03:38:04.351Z,11.07
2023-05-08T03:40:07.850Z,11.38
2023-05-08T03:42:09.753Z,10.40
2023-05-08T03:44:13.029Z,12.18
2023-05-08T03:46:16.639Z,10.82
2023-05-08T03:48:18.467Z,11.68
2023-05-08T03:50:20.264Z,12.20
2023-05-08T03:52:22.983Z,12.30
2023-05-08T03:54:25.652Z,11.23
2023-05-08T03:56:28.139Z,11.43
2023-05-08T03:58:45.848Z,9.25
2023-05-08T04:00:50.765Z,8.90
2023-05-08T04:03:14.244Z,10.45
2023-05-08T04:05:29.434Z,11.45
2023-05-08T04:08:23.094Z,9.68
2023-05-08T04:10:31.814Z,10.27
2023-05-08T04:13:16.822Z,11.25
2023-05-08T04:15:28.591Z,10.65
2023-05-08T04:17:49.526Z,9.00
2023-05-08T04:19:56.758Z,9.38
2023-05-08T04:22:04.740Z,9.50
2023-05-08T04:24:07.881Z,9.90
2023-05-08T04:26:10.869Z,9.55
2023-05-08T04:28:12.497Z,9.40
2023-05-08T04:30:14.468Z,8.52
2023-05-08T04:32:17.445Z,8.20
2023-05-08T04:34:19.144Z,7.82
2023-05-08T04:36:25.498Z,7.82
2023-05-08T04:38:27.052Z,7.25
2023-05-08T04:40:28.594Z,7.72
2023-05-08T04:42:30.242Z,7.72
2023-05-08T04:44:32.892Z,7.68
2023-05-08T04:46:35.297Z,7.18
2023-05-08T04:48:38.871Z,8.90
2023-05-08T04:50:40.626Z,7.22
2023-05-08T04:52:43.117Z,7.85
2023-05-08T04:54:44.750Z,7.60
2023-05-08T04:56:46.340Z,7.93
2023-05-08T04:58:47.838Z,7.40
2023-05-08T05:00:49.328Z,9.02
2023-05-08T05:02:51.231Z,8.15
2023-05-08T05:04:53.298Z,6.75
2023-05-08T05:06:55.077Z,6.95
2023-05-08T05:08:56.834Z,6.75
2023-05-08T05:11:00.805Z,6.97
2023-05-08T05:13:02.489Z,6.75
2023-05-08T05:15:07.535Z,8.18
2023-05-08T05:17:09.214Z,8.05
2023-05-08T05:19:10.787Z,6.70
2023-05-08T05:21:13.370Z,8.15
2023-05-08T05:23:14.902Z,9.10
2023-05-08T05:25:20.002Z,8.52
2023-05-08T05:27:23.959Z,8.40
2023-05-08T05:29:28.305Z,7.03
2023-05-08T05:31:30.493Z,9.38
2023-05-08T05:33:32.292Z,9.00
2023-05-08T05:35:34.448Z,9.07
2023-05-08T05:37:36.028Z,9.48
2023-05-08T05:39:37.907Z,8.07
2023-05-08T05:41:39.527Z,7.53
2023-05-08T05:43:41.325Z,8.90
2023-05-08T05:45:43.167Z,8.73
2023-05-08T05:47:48.190Z,8.75
2023-05-08T05:49:49.945Z,9.82
2023-05-08T05:51:51.608Z,9.93
2023-05-08T05:53:58.396Z,8.98
2023-05-08T05:56:00.108Z,8.75
2023-05-08T05:58:03.311Z,9.63
2023-05-08T06:00:06.332Z,9.52
2023-05-08T06:02:10.527Z,9.90
2023-05-08T06:04:14.109Z,10.27
2023-05-08T06:06:16.462Z,9.85
2023-05-08T06:08:19.158Z,10.52
2023-05-08T06:10:24.458Z,9.73
2023-05-08T06:12:27.532Z,13.40
2023-05-08T06:14:36.672Z,12.43
2023-05-08T06:16:42.034Z,14.50
2023-05-08T06:18:45.800Z,11.57
2023-05-08T06:20:47.512Z,12.60
2023-05-08T06:22:49.265Z,12.20
2023-05-08T06:24:54.541Z,14.57
2023-05-08T06:26:56.527Z,16.27
2023-05-08T06:29:17.541Z,17.17
2023-05-08T06:31:24.769Z,16.85
2023-05-08T06:33:27.105Z,17.80
2023-05-08T06:35:29.346Z,16.95
2023-05-08T06:37:44.663Z,17.85
2023-05-08T06:40:12.007Z,19.98
2023-05-08T06:42:26.268Z,17.38
2023-05-08T06:44:27.847Z,19.77
2023-05-08T06:46:30.060Z,19.75
2023-05-08T06:48:31.649Z,20.52
2023-05-08T06:50:33.326Z,21.63
2023-05-08T06:52:34.895Z,18.33
2023-05-08T06:54:36.409Z,17.77
2023-05-08T06:56:50.123Z,16.02
2023-05-08T06:59:01.066Z,16.45
2023-05-08T07:01:06.569Z,14.73
2023-05-08T07:03:08.212Z,16.77
2023-05-08T07:05:10.755Z,18.88
2023-05-08T07:07:14.118Z,16.25
2023-05-08T07:09:19.336Z,16.35
2023-05-08T07:11:20.815Z,16.05
2023-05-08T07:13:22.970Z,15.77
2023-05-08T07:15:26.003Z,13.82
2023-05-08T07:17:28.293Z,15.63
2023-05-08T07:19:29.825Z,16.02
2023-05-08T07:21:31.345Z,17.08
2023-05-08T07:23:32.849Z,18.60
2023-05-08T07:25:34.373Z,18.40
2023-05-08T07:27:36.001Z,18.10
2023-05-08T07:29:37.604Z,17.42
2023-05-08T07:31:40.997Z,19.38
2023-05-08T07:33:42.800Z,18.17
2023-05-08T07:35:44.631Z,19.15
2023-05-08T07:37:46.375Z,18.83
2023-05-08T07:40:13.898Z,19.15
2023-05-08T07:42:30.467Z,18.00
2023-05-08T07:44:54.878Z,19.33
2023-05-08T07:47:18.319Z,18.13
2023-05-08T07:49:39.784Z,19.85
2023-05-08T07:52:05.024Z,21.73
2023-05-08T07:54:10.704Z,22.33
2023-05-08T07:56:12.288Z,22.55
2023-05-08T07:58:14.509Z,22.08
2023-05-08T08:00:16.777Z,23.15
2023-05-08T08:02:18.470Z,22.45
2023-05-08T08:04:27.736Z,21.33
2023-05-08T08:06:32.821Z,21.48
2023-05-08T08:08:34.435Z,21.60
2023-05-08T08:10:36.009Z,23.00
2023-05-08T08:12:37.585Z,21.50
2023-05-08T08:14:39.423Z,21.95
2023-05-08T08:16:42.666Z,22.08
2023-05-08T08:18:44.429Z,22.23
2023-05-08T08:20:46.120Z,22.15
2023-05-08T08:22:48.314Z,22.55
2023-05-08T08:24:50.206Z,22.45
2023-05-08T08:26:52.714Z,22.05
2023-05-08T08:29:08.303Z,21.85
2023-05-08T08:31:10.170Z,21.65
2023-05-08T08:33:19.074Z,21.13
2023-05-08T08:35:21.067Z,22.50
2023-05-08T08:37:22.823Z,21.48
2023-05-08T08:39:24.595Z,22.58
2023-05-08T08:41:28.119Z,22.77
2023-05-08T08:43:30.567Z,22.65
2023-05-08T08:45:32.331Z,21.67
2023-05-08T08:47:38.132Z,21.48
2023-05-08T08:49:52.338Z,19.88
2023-05-08T08:51:57.880Z,19.67
2023-05-08T08:54:07.308Z,18.80
2023-05-08T08:56:09.792Z,20.23
2023-05-08T08:59:14.008Z,18.85
2023-05-08T09:01:28.194Z,18.00
2023-05-08T09:03:37.047Z,19.27
2023-05-08T09:05:43.985Z,19.00
2023-05-08T09:07:51.145Z,18.75
2023-05-08T09:10:08.605Z,19.98
2023-05-08T09:15:12.410Z,17.30
2023-05-08T09:17:24.295Z,17.88
2023-05-08T09:19:40.604Z,17.50
2023-05-08T09:21:45.767Z,17.27
2023-05-08T09:24:08.010Z,18.02
2023-05-08T09:26:15.367Z,16.65
2023-05-08T09:28:23.797Z,16.63
2023-05-08T09:30:31.150Z,16.92
2023-05-08T09:35:50.384Z,17.17
2023-05-08T09:38:10.133Z,16.20
2023-05-08T09:42:53.335Z,16.63
2023-05-08T09:44:55.776Z,16.95
2023-05-08T09:47:17.460Z,16.33
2023-05-08T09:49:20.969Z,18.42
2023-05-08T09:51:23.771Z,17.70
2023-05-08T09:53:31.802Z,16.60
2023-05-08T09:55:47.550Z,16.77
2023-05-08T09:57:57.237Z,16.20
2023-05-08T10:00:03.707Z,17.20
2023-05-08T10:02:13.256Z,15.80
2023-05-08T10:04:15.707Z,15.73
2023-05-08T10:06:17.471Z,15.30
2023-05-08T10:08:23.605Z,16.40
2023-05-08T10:10:27.898Z,15.45
2023-05-08T10:12:29.933Z,16.45
2023-05-08T10:14:31.644Z,17.98
2023-05-08T10:16:54.516Z,16.63
2023-05-08T10:19:03.563Z,14.95
2023-05-08T10:21:07.496Z,14.73
2023-05-08T10:23:11.716Z,14.57
2023-05-08T10:25:17.241Z,14.43
2023-05-08T10:27:24.719Z,14.93
2023-05-08T10:29:41.618Z,14.95
2023-05-08T10:31:45.318Z,16.23
2023-05-08T10:33:51.784Z,15.52
2023-05-08T10:35:53.838Z,14.35
2023-05-08T10:37:58.820Z,16.02
2023-05-08T10:40:00.848Z,14.30
2023-05-08T10:42:03.349Z,15.18
2023-05-08T10:44:05.474Z,13.52
2023-05-08T10:46:23.089Z,13.07
2023-05-08T10:48:32.850Z,14.50
2023-05-08T10:51:05.830Z,14.07
2023-05-08T10:53:09.529Z,12.65
2023-05-08T10:55:24.246Z,12.27
2023-05-08T10:57:26.107Z,12.65
2023-05-08T10:59:30.055Z,10.43
2023-05-08T11:01:32.143Z,10.80
2023-05-08T11:03:41.576Z,12.75
2023-05-08T11:05:48.684Z,12.50
2023-05-08T11:07:54.307Z,12.05
2023-05-08T11:10:07.534Z,11.45
2023-05-08T11:12:17.784Z,11.57
2023-05-08T11:14:19.881Z,11.32
2023-05-08T11:17:03.396Z,10.57
2023-05-08T11:19:20.900Z,12.45
2023-05-08T11:21:22.589Z,10.50
2023-05-08T11:23:30.402Z,10.32
2023-05-08T11:25:44.779Z,10.00
2023-05-08T11:27:49.498Z,9.43
2023-05-08T11:30:18.549Z,11.98
2023-05-08T11:32:20.346Z,10.27
2023-05-08T11:34:44.369Z,9.55
2023-05-08T11:37:03.630Z,8.82
2023-05-08T11:39:13.243Z,9.98
2023-05-08T11:41:22.761Z,11.07
2023-05-08T11:43:29.752Z,8.82
2023-05-08T11:45:32.464Z,10.68
2023-05-08T11:47:42.201Z,10.38
2023-05-08T11:49:43.894Z,12.55
2023-05-08T11:51:46.819Z,10.25
2023-05-08T11:53:48.573Z,9.07
2023-05-08T11:55:52.463Z,9.63
2023-05-08T11:57:56.767Z,9.20
2023-05-08T11:59:58.410Z,9.60
2023-05-08T12:02:08.462Z,9.30
2023-05-08T12:04:13.112Z,8.90
2023-05-08T12:06:15.230Z,8.50
2023-05-08T12:08:18.266Z,7.88
2023-05-08T12:10:20.206Z,8.68
2023-05-08T12:12:21.879Z,8.95
2023-05-08T12:14:23.970Z,7.82
2023-05-08T12:16:26.383Z,7.75
2023-05-08T12:18:29.402Z,7.15
2023-05-08T12:20:32.624Z,6.97
2023-05-08T12:22:35.587Z,8.27
2023-05-08T12:24:37.393Z,8.18
2023-05-08T12:26:39.121Z,7.50
2023-05-08T12:28:41.868Z,8.40
2023-05-08T12:30:43.583Z,7.60
2023-05-08T12:32:46.597Z,7.35
2023-05-08T12:34:48.453Z,7.63
2023-05-08T12:37:01.772Z,7.30
2023-05-08T12:39:13.306Z,7.47
2023-05-08T12:41:15.016Z,6.82
2023-05-08T12:43:16.779Z,7.05
2023-05-08T12:45:25.707Z,8.07
2023-05-08T12:47:28.106Z,6.90
2023-05-08T12:49:31.635Z,7.93
2023-05-08T12:51:33.360Z,7.43
2023-05-08T12:53:36.178Z,6.78
2023-05-08T12:55:39.518Z,6.43
2023-05-08T12:57:41.199Z,6.82
2023-05-08T12:59:43.845Z,6.93
2023-05-08T13:01:51.186Z,8.52
2023-05-08T13:04:01.779Z,8.55
2023-05-08T13:06:05.120Z,8.48
2023-05-08T13:08:11.248Z,9.07
2023-05-08T13:10:13.116Z,9.15
2023-05-08T13:12:14.947Z,10.00
2023-05-08T13:14:17.160Z,9.87
2023-05-08T13:16:18.872Z,8.18
2023-05-08T13:18:22.320Z,8.95
2023-05-08T13:20:24.092Z,9.10
2023-05-08T13:22:26.874Z,9.65
2023-05-08T13:24:28.646Z,9.02
2023-05-08T13:26:30.272Z,9.13
2023-05-08T13:28:31.882Z,9.02
2023-05-08T13:30:34.220Z,9.93
2023-05-08T13:32:35.928Z,9.15
2023-05-08T13:34:47.234Z,8.68
2023-05-08T13:36:51.740Z,7.97
2023-05-08T13:38:54.904Z,8.73
2023-05-08T13:40:56.521Z,10.10
2023-05-08T13:42:58.257Z,8.73
2023-05-08T13:45:00.013Z,9.23
2023-05-08T13:47:01.625Z,9.57
2023-05-08T13:49:03.259Z,9.35
2023-05-08T13:51:05.192Z,9.30
2023-05-08T13:53:07.035Z,10.68
2023-05-08T13:55:10.571Z,10.30
2023-05-08T13:57:12.719Z,10.90
2023-05-08T13:59:14.366Z,10.75
2023-05-08T14:01:25.518Z,10.38
2023-05-08T14:03:28.395Z,11.20
2023-05-08T14:05:30.072Z,11.82
2023-05-08T14:07:31.767Z,12.75
2023-05-08T14:09:33.752Z,13.25
2023-05-08T14:11:35.385Z,13.95
2023-05-08T14:13:37.558Z,15.23
2023-05-08T14:15:40.371Z,13.70
2023-05-08T14:17:42.465Z,14.60
2023-05-08T14:19:44.421Z,15.05
2023-05-08T14:21:46.112Z,14.05
2023-05-08T14:23:47.701Z,15.02
2023-05-08T14:25:49.371Z,13.43
2023-05-08T14:27:51.168Z,16.55
2023-05-08T14:29:53.746Z,17.40
2023-05-08T14:31:55.584Z,17.00
2023-05-08T14:33:57.249Z,17.23
2023-05-08T14:35:58.922Z,15.55
2023-05-08T14:38:00.582Z,14.45
2023-05-08T14:40:02.243Z,13.88
2023-05-08T14:44:08.670Z,15.00
2023-05-08T14:46:10.376Z,14.38
2023-05-08T14:48:12.132Z,15.10
2023-05-08T14:50:13.779Z,15.93
2023-05-08T14:52:15.861Z,15.75
2023-05-08T14:54:17.822Z,15.07
2023-05-08T14:56:19.813Z,14.82
2023-05-08T14:58:21.675Z,14.82
2023-05-08T15:00:23.720Z,16.75
2023-05-08T15:02:25.505Z,15.65
2023-05-08T15:04:27.136Z,15.10
2023-05-08T15:06:30.999Z,15.07
2023-05-08T15:08:32.659Z,13.10
2023-05-08T15:10:34.369Z,16.00
2023-05-08T15:12:36.154Z,15.30
2023-05-08T15:14:37.759Z,15.73
2023-05-08T15:16:39.501Z,14.98
2023-05-08T15:18:41.150Z,14.90
2023-05-08T15:20:43.047Z,15.48
2023-05-08T15:22:44.732Z,13.27
2023-05-08T15:24:46.424Z,14.73
2023-05-08T15:26:48.181Z,15.10
2023-05-08T15:28:51.023Z,13.57
2023-05-08T15:30:52.720Z,13.10
2023-05-08T15:32:54.446Z,11.68
2023-05-08T15:34:56.245Z,13.00
2023-05-08T15:36:57.958Z,12.63
2023-05-08T15:38:59.661Z,12.07
2023-05-08T15:41:01.304Z,12.43
2023-05-08T15:43:04.023Z,12.00
2023-05-08T15:45:06.126Z,12.15
2023-05-08T15:47:07.850Z,12.85
2023-05-08T15:49:09.504Z,11.98
2023-05-08T15:51:11.723Z,12.38
2023-05-08T15:53:13.501Z,12.75
2023-05-08T15:55:15.272Z,11.38
2023-05-08T15:57:17.317Z,11.90
2023-05-08T15:59:19.137Z,10.90
2023-05-08T16:01:21.162Z,11.77
2023-05-08T16:03:23.070Z,11.10
2023-05-08T16:05:24.760Z,9.80
2023-05-08T16:07:26.387Z,9.85
2023-05-08T16:09:28.035Z,10.70
2023-05-08T16:11:32.877Z,10.50
2023-05-08T16:13:34.638Z,9.50
2023-05-08T16:15:36.377Z,9.95
2023-05-08T16:17:38.179Z,10.32
2023-05-08T16:19:40.067Z,9.20
2023-05-08T16:21:41.772Z,9.02
2023-05-08T16:23:43.441Z,8.52
2023-05-08T16:25:45.149Z,8.65
2023-05-08T16:27:46.769Z,8.65
2023-05-08T16:29:48.368Z,7.28
2023-05-08T16:31:50.150Z,6.40
2023-05-08T16:33:51.897Z,8.77
2023-05-08T16:35:54.234Z,6.45
2023-05-08T16:37:55.920Z,7.40
2023-05-08T16:39:57.538Z,7.15
2023-05-08T16:41:59.154Z,6.75
2023-05-08T16:44:00.820Z,7.07
2023-05-08T16:46:02.545Z,8.60
2023-05-08T16:48:04.275Z,8.50
2023-05-08T16:50:06.611Z,8.68
2023-05-08T16:52:08.314Z,8.40
2023-05-08T16:54:10.267Z,8.68
2023-05-08T16:56:11.913Z,8.82
2023-05-08T16:58:13.581Z,9.40
2023-05-08T17:00:15.646Z,8.55
2023-05-08T17:02:19.224Z,8.48
2023-05-08T17:04:21.199Z,9.82
2023-05-08T17:06:22.869Z,9.38
2023-05-08T17:08:24.493Z,9.90
2023-05-08T17:10:26.191Z,10.60
2023-05-08T17:12:27.872Z,10.70
2023-05-08T17:14:29.472Z,10.18
2023-05-08T17:16:31.223Z,10.93
2023-05-08T17:18:32.986Z,11.35
2023-05-08T17:20:40.887Z,11.68
2023-05-08T17:22:42.786Z,12.48
2023-05-08T17:24:44.353Z,12.05
2023-05-08T17:26:45.965Z,11.82
2023-05-08T17:28:47.720Z,11.82
2023-05-08T17:30:49.350Z,10.77
2023-05-08T17:32:51.838Z,10.63
2023-05-08T17:34:53.504Z,11.23
2023-05-08T17:36:55.392Z,11.73
2023-05-08T17:38:57.044Z,11.10
2023-05-08T17:41:01.208Z,11.48
2023-05-08T17:43:02.987Z,12.65
2023-05-08T17:45:05.051Z,9.32
2023-05-08T17:47:06.731Z,10.07
2023-05-08T17:49:08.722Z,11.65
2023-05-08T17:51:14.130Z,11.00
2023-05-08T17:53:15.755Z,9.95
2023-05-08T17:55:17.493Z,8.90
2023-05-08T17:57:19.446Z,9.70
2023-05-08T17:59:21.128Z,10.50
2023-05-08T18:01:22.931Z,11.25
2023-05-08T18:03:24.714Z,10.93
2023-05-08T18:05:26.367Z,11.38
2023-05-08T18:07:28.073Z,10.82
2023-05-08T18:09:30.051Z,13.90
2023-05-08T18:11:31.746Z,14.32
2023-05-08T18:13:34.818Z,13.30
2023-05-08T18:15:40.276Z,11.68
2023-05-08T18:17:42.012Z,13.88
2023-05-08T18:19:43.657Z,12.00
2023-05-08T18:21:45.300Z,12.27
2023-05-08T18:23:46.950Z,12.63
2023-05-08T18:25:48.526Z,11.20
2023-05-08T18:27:50.702Z,12.30
2023-05-08T18:29:52.729Z,11.02
2023-05-08T18:31:54.394Z,10.05
2023-05-08T18:33:56.058Z,9.38
2023-05-08T18:35:57.818Z,8.88
2023-05-08T18:37:59.452Z,10.07
2023-05-08T18:40:01.092Z,10.75
2023-05-08T18:42:03.147Z,10.93
2023-05-08T18:44:08.978Z,12.20
2023-05-08T18:46:15.046Z,12.00
2023-05-08T18:48:16.688Z,10.15
2023-05-08T18:50:18.383Z,12.70
2023-05-08T18:52:20.161Z,12.20
2023-05-08T18:54:26.389Z,11.45
2023-05-08T18:56:28.291Z,12.90
2023-05-08T18:58:30.634Z,13.05
2023-05-08T19:00:33.218Z,12.93
2023-05-08T19:02:35.092Z,14.60
2023-05-08T19:04:37.159Z,14.30
2023-05-08T19:06:38.848Z,12.65
2023-05-08T19:08:41.155Z,16.30
2023-05-08T19:10:42.782Z,15.20
2023-05-08T19:12:44.519Z,14.68
2023-05-08T19:14:46.208Z,13.65
2023-05-08T19:16:47.837Z,15.35
2023-05-08T19:18:50.819Z,12.45
2023-05-08T19:20:52.516Z,13.75
2023-05-08T19:22:54.616Z,14.90
2023-05-08T19:24:56.217Z,13.73
2023-05-08T19:26:59.127Z,13.95
2023-05-08T19:29:00.792Z,13.05
2023-05-08T19:31:02.399Z,12.27
2023-05-08T19:33:04.130Z,12.18
2023-05-08T19:35:06.174Z,13.45
2023-05-08T19:37:07.921Z,14.15
2023-05-08T19:39:09.595Z,15.10
2023-05-08T19:41:11.642Z,12.10
2023-05-08T19:43:13.276Z,13.43
2023-05-08T19:45:16.329Z,11.75
2023-05-08T19:47:18.139Z,11.57
2023-05-08T19:49:19.768Z,11.07
2023-05-08T19:51:21.446Z,11.38
2023-05-08T19:53:23.547Z,10.52
2023-05-08T19:55:25.426Z,10.57
2023-05-08T19:57:27.037Z,10.25
2023-05-08T19:59:28.723Z,11.55
2023-05-08T20:01:30.497Z,11.68
2023-05-08T20:03:32.327Z,12.38
2023-05-08T20:05:34.036Z,11.35
2023-05-08T20:07:35.630Z,11.90
2023-05-08T20:09:38.442Z,11.90
2023-05-08T20:11:40.044Z,12.20
2023-05-08T20:13:41.687Z,12.35
2023-05-08T20:15:43.350Z,12.48
2023-05-08T20:17:46.799Z,13.30
2023-05-08T20:19:48.675Z,11.73
2023-05-08T20:21:50.356Z,11.68
2023-05-08T20:23:52.029Z,12.35
2023-05-08T20:25:54.312Z,12.85
2023-05-08T20:27:56.015Z,11.38
2023-05-08T20:29:57.669Z,11.90
2023-05-08T20:31:59.385Z,12.77
2023-05-08T20:34:01.412Z,12.43
2023-05-08T20:36:03.453Z,12.48
2023-05-08T20:38:05.706Z,12.93
2023-05-08T20:40:08.122Z,12.25
2023-05-08T20:42:09.831Z,12.88
2023-05-08T20:44:12.509Z,14.10
2023-05-08T20:46:14.210Z,12.05
2023-05-08T20:48:15.908Z,10.88
2023-05-08T20:50:17.525Z,12.05
2023-05-08T20:52:19.113Z,11.65
2023-05-08T20:54:21.538Z,12.55
2023-05-08T20:56:23.182Z,11.73
2023-05-08T20:58:24.836Z,10.95
2023-05-08T21:00:26.808Z,10.93
2023-05-08T21:02:31.063Z,10.43
2023-05-08T21:04:32.700Z,11.60
2023-05-08T21:06:34.395Z,11.13
2023-05-08T21:08:36.035Z,10.73
2023-05-08T21:10:37.636Z,10.57
2023-05-08T21:12:39.351Z,10.70
2023-05-08T21:14:41.132Z,10.15
2023-05-08T21:16:42.774Z,11.40
2023-05-08T21:18:44.506Z,10.20
2023-05-08T21:20:49.991Z,10.52
2023-05-08T21:22:51.855Z,11.30
2023-05-08T21:24:53.537Z,16.90
2023-05-08T21:26:56.125Z,13.75
2023-05-08T21:28:58.830Z,13.27
2023-05-08T21:31:00.667Z,14.35
2023-05-08T21:33:03.126Z,14.82
2023-05-08T21:35:05.108Z,13.68
2023-05-08T21:37:06.799Z,15.23
2023-05-08T21:39:08.961Z,15.20
2023-05-08T21:41:10.582Z,15.13
2023-05-08T21:43:12.278Z,15.30
2023-05-08T21:45:14.127Z,12.55
2023-05-08T21:47:15.897Z,13.85
2023-05-08T21:49:17.662Z,14.13
2023-05-08T21:51:19.282Z,12.32
2023-05-08T21:53:20.946Z,14.20
2023-05-08T21:55:24.077Z,14.10
2023-05-08T21:57:25.831Z,12.68
2023-05-08T21:59:30.912Z,14.38
2023-05-08T22:01:33.135Z,14.65
2023-05-08T22:03:34.913Z,14.35
2023-05-08T22:05:36.666Z,13.80
2023-05-08T22:07:38.290Z,13.18
2023-05-08T22:09:39.968Z,12.98
2023-05-08T22:11:41.631Z,13.13
2023-05-08T22:13:43.311Z,13.90
2023-05-08T22:15:45.182Z,12.85
2023-05-08T22:17:47.076Z,12.48
2023-05-08T22:19:48.785Z,13.98
2023-05-08T22:21:50.475Z,13.20
2023-05-08T22:23:52.128Z,15.13
2023-05-08T22:25:53.827Z,13.13
2023-05-08T22:27:58.409Z,14.73
2023-05-08T22:30:01.286Z,13.75
2023-05-08T22:32:03.511Z,13.35
2023-05-08T22:34:05.286Z,13.05
2023-05-08T22:36:07.323Z,12.00
2023-05-08T22:38:09.029Z,11.43
2023-05-08T22:40:10.949Z,12.50
2023-05-08T22:42:12.677Z,12.38
2023-05-08T22:44:14.343Z,12.80
2023-05-08T22:46:16.211Z,10.85
2023-05-08T22:48:18.139Z,13.48
2023-05-08T22:50:19.920Z,11.77
2023-05-08T22:52:21.664Z,12.15
2023-05-08T22:54:23.369Z,14.45
2023-05-08T22:56:25.209Z,12.23
2023-05-08T22:58:29.162Z,12.80
2023-05-08T23:00:30.961Z,10.98
2023-05-08T23:02:33.505Z,13.23
2023-05-08T23:04:35.597Z,11.25
2023-05-08T23:06:37.524Z,12.00
2023-05-08T23:08:39.131Z,10.55
2023-05-08T23:10:41.465Z,10.40
2023-05-08T23:12:43.506Z,10.50
2023-05-08T23:14:45.155Z,11.27
2023-05-08T23:16:46.818Z,12.50
2023-05-08T23:18:48.433Z,12.52
2023-05-08T23:20:50.065Z,11.48
2023-05-08T23:22:51.695Z,11.70
2023-05-08T23:24:53.477Z,11.88
2023-05-08T23:26:55.110Z,11.15
2023-05-08T23:28:56.769Z,12.15
2023-05-08T23:30:58.595Z,10.65
2023-05-08T23:33:00.780Z,10.57
2023-05-08T23:35:02.817Z,10.82
2023-05-08T23:37:04.527Z,11.02
2023-05-08T23:39:09.169Z,10.35
2023-05-08T23:41:11.486Z,11.57
2023-05-08T23:43:13.278Z,10.15
2023-05-08T23:45:15.051Z,13.88
2023-05-08T23:47:19.231Z,11.57
2023-05-08T23:49:20.882Z,10.65
2023-05-08T23:51:22.549Z,12.75
2023-05-08T23:53:24.296Z,13.15
2023-05-08T23:55:25.942Z,11.38
2023-05-08T23:57:27.587Z,11.85
2023-05-08T23:59:29.232Z,12.18
